Time;durP1;ratioP1;P1;durP2;ratioP2;P2;SDS_P1;SDS_P2;PMS_P1;PMS_P2;Temp;Humidity;BMP_temperature;BMP_pressure;BME280_temperature;BME280_humidity;BME280_pressure;Samples;Min_cycle;Max_cycle;Signal;HPM_P1;HPM_P2
2024/03/21 00:00:24;;;;;;;5.40;2.35;;;8.20;99.90;;;;;;5053992;28;20643;-63
2024/03/21 00:03:10;;;;;;;4.55;2.72;;;8.20;99.90;;;;;;5046148;28;20462;-63
2024/03/21 00:05:56;;;;;;;2.85;1.95;;;8.20;99.90;;;;;;5051595;28;20033;-63
2024/03/21 00:08:42;;;;;;;7.18;2.33;;;8.20;99.90;;;;;;5050680;28;20031;-63
2024/03/21 00:11:27;;;;;;;3.58;2.20;;;8.20;99.90;;;;;;5051995;28;20114;-62
2024/03/21 00:14:15;;;;;;;5.53;2.42;;;8.20;99.90;;;;;;5051364;28;20155;-62
2024/03/21 00:17:01;;;;;;;3.95;2.00;;;8.20;99.90;;;;;;5042222;28;20045;-63
2024/03/21 00:19:46;;;;;;;6.30;2.47;;;8.10;99.90;;;;;;5036649;28;20589;-63
2024/03/21 00:22:32;;;;;;;4.35;2.33;;;8.00;99.90;;;;;;5030033;28;20941;-63
2024/03/21 00:25:18;;;;;;;5.18;2.30;;;7.90;99.90;;;;;;5039884;28;20037;-62
2024/03/21 00:28:04;;;;;;;8.60;2.53;;;7.90;99.90;;;;;;5034360;28;20033;-62
2024/03/21 00:30:54;;;;;;;6.82;2.30;;;7.90;99.90;;;;;;5039930;28;20143;-62
2024/03/21 00:33:40;;;;;;;5.43;2.42;;;7.90;99.90;;;;;;5034929;28;20091;-63
2024/03/21 00:36:26;;;;;;;5.20;2.03;;;7.90;99.90;;;;;;5037817;28;20393;-63
2024/03/21 00:39:19;;;;;;;3.47;2.22;;;7.90;99.90;;;;;;5031212;28;20118;-62
2024/03/21 00:42:05;;;;;;;4.93;3.33;;;7.90;99.90;;;;;;5035957;28;20052;-63
2024/03/21 00:44:52;;;;;;;3.83;2.20;;;7.90;99.90;;;;;;5037227;28;20485;-63
2024/03/21 00:47:38;;;;;;;;;;;7.90;99.90;;;;;;5037888;28;20039;-63
2024/03/21 00:50:23;;;;;;;5.07;2.58;;;7.90;99.90;;;;;;5038606;28;20325;-63
2024/03/21 00:53:09;;;;;;;8.10;2.58;;;7.90;99.90;;;;;;5033909;28;20038;-63
2024/03/21 00:55:55;;;;;;;4.55;2.35;;;7.90;99.90;;;;;;5036502;28;20041;-63
2024/03/21 00:58:41;;;;;;;7.10;2.53;;;8.00;99.90;;;;;;5037515;28;20083;-63
2024/03/21 01:01:27;;;;;;;5.55;2.35;;;8.00;99.90;;;;;;5044570;28;20106;-63
2024/03/21 01:04:13;;;;;;;5.90;2.10;;;8.00;99.90;;;;;;5037113;28;20108;-63
2024/03/21 01:07:00;;;;;;;7.55;3.00;;;8.00;99.90;;;;;;5040737;28;20072;-62
2024/03/21 01:09:46;;;;;;;7.40;2.40;;;8.00;99.90;;;;;;5033694;28;20045;-63
2024/03/21 01:12:32;;;;;;;4.93;2.25;;;8.10;99.90;;;;;;5036466;28;20608;-63
2024/03/21 01:15:18;;;;;;;5.25;2.53;;;8.10;99.90;;;;;;5043401;28;20116;-63
2024/03/21 01:18:06;;;;;;;5.55;2.17;;;8.20;99.90;;;;;;5040907;28;20035;-63
2024/03/21 01:20:52;;;;;;;6.45;2.88;;;8.20;99.90;;;;;;5041069;28;20041;-63
2024/03/21 01:23:38;;;;;;;5.53;3.08;;;8.30;99.90;;;;;;5043513;28;20024;-63
2024/03/21 01:26:24;;;;;;;7.22;2.40;;;8.30;99.90;;;;;;5043691;28;20072;-63
2024/03/21 01:29:10;;;;;;;7.33;2.47;;;8.30;99.90;;;;;;5041448;28;20036;-63
2024/03/21 01:31:56;;;;;;;5.95;2.65;;;8.30;99.90;;;;;;5040348;28;20087;-63
2024/03/21 01:34:42;;;;;;;3.63;2.00;;;8.30;99.90;;;;;;5044727;28;20039;-63
2024/03/21 01:37:28;;;;;;;8.40;2.88;;;8.30;99.90;;;;;;5042732;28;20055;-63
2024/03/21 01:40:14;;;;;;;6.88;2.58;;;8.30;99.90;;;;;;5042859;28;20029;-63
2024/03/21 01:43:00;;;;;;;8.63;3.13;;;8.30;99.90;;;;;;5041984;28;20051;-63
2024/03/21 01:46:05;;;;;;;5.72;2.83;;;8.30;99.90;;;;;;5036283;28;20053;-63
2024/03/21 01:48:52;;;;;;;9.57;2.67;;;8.30;99.90;;;;;;5036540;28;20079;-62
2024/03/21 01:51:44;;;;;;;3.85;1.88;;;8.30;99.90;;;;;;5044808;28;20075;-63
2024/03/21 01:54:33;;;;;;;5.93;2.50;;;8.30;99.90;;;;;;5040318;28;20557;-62
2024/03/21 01:57:19;;;;;;;6.72;2.40;;;8.30;99.90;;;;;;5039035;28;20839;-62
2024/03/21 02:00:06;;;;;;;5.05;2.72;;;8.30;99.90;;;;;;5039391;28;20409;-63
2024/03/21 02:02:52;;;;;;;10.02;2.47;;;8.30;99.90;;;;;;5018559;28;20591;-63
2024/03/21 02:05:38;;;;;;;6.93;2.85;;;8.30;99.90;;;;;;5015685;28;20184;-63
2024/03/21 02:08:24;;;;;;;5.43;2.65;;;8.30;99.90;;;;;;5011159;28;20033;-63
2024/03/21 02:11:11;;;;;;;5.07;2.22;;;8.30;99.90;;;;;;5021637;28;20037;-63
2024/03/21 02:13:57;;;;;;;;;;;8.30;99.90;;;;;;5010419;28;20105;-63
2024/03/21 02:16:42;;;;;;;7.20;2.47;;;8.30;99.90;;;;;;5020470;28;19918;-62
2024/03/21 02:19:29;;;;;;;5.35;2.30;;;8.30;99.90;;;;;;5021137;28;20040;-63
2024/03/21 02:25:20;;;;;;;5.05;2.50;;;8.30;99.90;;;;;;5022821;28;20041;-63
2024/03/21 02:28:06;;;;;;;4.72;2.33;;;8.40;99.90;;;;;;5015782;28;20029;-62
2024/03/21 02:30:52;;;;;;;4.53;1.90;;;8.30;99.90;;;;;;5012834;28;20087;-63
2024/03/21 02:33:38;;;;;;;6.50;2.72;;;8.40;99.90;;;;;;5018863;28;20037;-63
2024/03/21 02:36:24;;;;;;;5.47;2.45;;;8.40;99.90;;;;;;5018182;28;20091;-63
2024/03/21 02:39:10;;;;;;;5.10;2.55;;;8.50;99.90;;;;;;5015586;28;20037;-63
2024/03/21 02:41:57;;;;;;;3.87;2.40;;;8.50;99.90;;;;;;5017454;28;20113;-63
2024/03/21 02:44:42;;;;;;;8.30;2.72;;;8.60;99.90;;;;;;5019220;28;20025;-63
2024/03/21 02:47:28;;;;;;;6.47;2.47;;;8.60;99.90;;;;;;5014976;28;20298;-63
2024/03/21 02:50:14;;;;;;;7.95;2.72;;;8.60;99.90;;;;;;5017657;28;20639;-63
2024/03/21 02:53:02;;;;;;;6.35;2.47;;;8.70;99.90;;;;;;5015277;28;20460;-63
2024/03/21 02:55:47;;;;;;;5.00;2.42;;;8.70;99.90;;;;;;5017762;28;20037;-63
2024/03/21 02:58:33;;;;;;;5.07;2.35;;;8.70;99.90;;;;;;5017952;28;20037;-62
2024/03/21 03:01:19;;;;;;;6.15;2.35;;;8.80;99.90;;;;;;5015935;28;20072;-63
2024/03/21 03:04:05;;;;;;;18.23;2.72;;;8.80;99.90;;;;;;5013642;28;20116;-63
2024/03/21 03:06:51;;;;;;;7.00;2.70;;;8.80;99.90;;;;;;5024046;28;20037;-63
2024/03/21 03:09:37;;;;;;;8.20;2.65;;;8.80;99.90;;;;;;5015083;28;20079;-63
2024/03/21 03:12:23;;;;;;;5.70;2.85;;;8.80;99.90;;;;;;5021117;28;20040;-62
2024/03/21 03:15:10;;;;;;;3.25;2.50;;;8.90;99.90;;;;;;5018023;28;20463;-63
2024/03/21 03:17:55;;;;;;;5.63;2.42;;;8.80;99.90;;;;;;5022271;28;20481;-63
2024/03/21 03:20:42;;;;;;;7.03;2.47;;;8.80;99.90;;;;;;5019605;28;20037;-62
2024/03/21 03:23:28;;;;;;;5.43;2.55;;;8.80;99.90;;;;;;5021253;28;20037;-63
2024/03/21 03:26:14;;;;;;;3.47;2.42;;;8.80;99.90;;;;;;5022116;28;20049;-63
2024/03/21 03:28:59;;;;;;;6.82;2.47;;;8.80;99.90;;;;;;5018300;28;20036;-62
2024/03/21 03:31:45;;;;;;;11.57;2.83;;;8.80;99.90;;;;;;5023193;28;20029;-62
2024/03/21 03:37:35;;;;;;;5.22;2.30;;;8.70;99.90;;;;;;5021579;28;20479;-63
2024/03/21 03:40:21;;;;;;;3.30;2.45;;;8.70;99.90;;;;;;5019826;28;20762;-64
2024/03/21 03:43:07;;;;;;;3.67;2.30;;;8.80;99.90;;;;;;5019128;28;20033;-63
2024/03/21 03:45:53;;;;;;;6.28;2.40;;;8.70;99.90;;;;;;5022102;28;20034;-63
2024/03/21 03:48:39;;;;;;;4.55;2.33;;;8.70;99.90;;;;;;5018784;28;20047;-62
2024/03/21 03:51:25;;;;;;;7.07;2.40;;;8.70;99.90;;;;;;5017434;28;20810;-62
2024/03/21 03:54:10;;;;;;;4.13;2.10;;;8.70;99.90;;;;;;5025888;28;20096;-63
2024/03/21 03:56:56;;;;;;;6.35;3.10;;;8.70;99.90;;;;;;5025013;28;20106;-63
2024/03/21 03:59:42;;;;;;;5.18;2.70;;;8.70;99.90;;;;;;5020590;28;20452;-62
2024/03/21 04:02:29;;;;;;;5.97;2.78;;;8.70;99.90;;;;;;5021839;28;20041;-62
2024/03/21 04:05:17;;;;;;;;;;;8.70;99.90;;;;;;5021150;28;20719;-63
2024/03/21 04:08:03;;;;;;;5.85;2.38;;;8.70;99.90;;;;;;5026795;28;20043;-63
2024/03/21 04:10:49;;;;;;;7.65;3.13;;;8.70;99.90;;;;;;5024022;28;20116;-62
2024/03/21 04:13:35;;;;;;;6.30;2.67;;;8.60;99.90;;;;;;5020789;28;20065;-63
2024/03/21 04:16:21;;;;;;;10.00;2.45;;;8.60;99.90;;;;;;5019101;28;20121;-62
2024/03/21 04:19:08;;;;;;;6.93;2.93;;;8.60;99.90;;;;;;5022688;28;20113;-63
2024/03/21 04:21:54;;;;;;;5.35;2.13;;;8.50;99.90;;;;;;5022936;28;20029;-62
2024/03/21 04:24:41;;;;;;;8.25;2.75;;;8.50;99.90;;;;;;5022221;28;20403;-62
2024/03/21 04:27:28;;;;;;;8.55;2.42;;;8.50;99.90;;;;;;5033963;28;20064;-63
2024/03/21 04:30:14;;;;;;;8.32;2.05;;;8.50;99.90;;;;;;5025060;28;20506;-62
2024/03/21 04:33:00;;;;;;;8.25;2.60;;;8.50;99.90;;;;;;5020497;28;20033;-62
2024/03/21 04:35:46;;;;;;;5.72;2.55;;;8.60;99.90;;;;;;5023815;28;20041;-63
2024/03/21 04:38:32;;;;;;;8.05;2.28;;;8.60;99.90;;;;;;5023984;28;20099;-63
2024/03/21 04:41:18;;;;;;;7.32;2.80;;;8.60;99.90;;;;;;5023153;28;20037;-63
2024/03/21 04:44:04;;;;;;;8.07;2.45;;;8.70;99.90;;;;;;5024508;28;20037;-62
2024/03/21 04:46:49;;;;;;;6.40;2.40;;;8.70;99.90;;;;;;5017968;28;20442;-62
2024/03/21 04:49:36;;;;;;;8.80;2.55;;;8.70;99.90;;;;;;5023498;28;20053;-62
2024/03/21 04:52:21;;;;;;;11.73;2.70;;;8.70;99.90;;;;;;5023858;28;20029;-63
2024/03/21 04:55:07;;;;;;;4.72;2.75;;;8.80;99.90;;;;;;5024348;28;20123;-62
2024/03/21 04:57:53;;;;;;;4.70;2.17;;;8.80;99.90;;;;;;5022687;28;20092;-62
2024/03/21 05:00:39;;;;;;;7.50;2.88;;;8.80;99.90;;;;;;5025076;28;20056;-62
2024/03/21 05:03:25;;;;;;;8.65;3.10;;;8.80;99.90;;;;;;5043467;28;20036;-62
2024/03/21 05:06:11;;;;;;;9.95;3.45;;;8.80;99.90;;;;;;5041687;28;20048;-63
2024/03/21 05:08:57;;;;;;;9.38;3.47;;;8.90;99.90;;;;;;5043571;28;20430;-63
2024/03/21 05:11:42;;;;;;;4.90;3.63;;;8.80;99.90;;;;;;5039095;28;20029;-63
2024/03/21 05:14:33;;;;;;;11.52;5.43;;;8.80;99.90;;;;;;5039655;28;20083;-62
2024/03/21 05:17:20;;;;;;;10.05;6.00;;;8.90;99.90;;;;;;5039150;28;20043;-63
2024/03/21 05:20:07;;;;;;;20.40;10.15;;;8.90;99.90;;;;;;5042514;28;20036;-63
2024/03/21 05:22:53;;;;;;;19.25;10.10;;;9.00;99.90;;;;;;5041066;28;20041;-63
2024/03/21 05:25:39;;;;;;;17.45;9.52;;;9.10;99.90;;;;;;5037431;28;20049;-63
2024/03/21 05:28:24;;;;;;;17.83;8.80;;;9.20;99.90;;;;;;5028748;22;20057;-62
2024/03/21 05:31:20;;;;;;;14.65;8.20;;;9.10;99.90;;;;;;5020369;28;20260;-62
2024/03/21 05:34:07;;;;;;;16.10;8.57;;;9.20;99.90;;;;;;5021991;28;20224;-62
2024/03/21 05:36:53;;;;;;;;;;;9.20;99.90;;;;;;5021674;28;20029;-63
2024/03/21 05:39:39;;;;;;;15.88;6.85;;;9.30;99.90;;;;;;5019002;28;19921;-63
2024/03/21 05:42:24;;;;;;;13.15;7.03;;;9.30;99.90;;;;;;5024610;28;20116;-62
2024/03/21 05:45:10;;;;;;;13.82;7.80;;;9.30;99.90;;;;;;5017689;28;20029;-62
2024/03/21 05:47:56;;;;;;;14.18;6.93;;;9.30;99.90;;;;;;5017022;28;20294;-63
2024/03/21 05:50:43;;;;;;;20.83;10.00;;;9.40;99.90;;;;;;5022391;28;20048;-63
2024/03/21 05:53:29;;;;;;;25.00;14.95;;;9.30;99.90;;;;;;5019749;28;20060;-63
2024/03/21 05:56:16;;;;;;;24.70;14.82;;;9.40;99.90;;;;;;5020464;28;20045;-63
2024/03/21 05:59:03;;;;;;;;;;;9.40;99.90;;;;;;5020825;28;20037;-63
2024/03/21 06:01:50;;;;;;;26.33;14.87;;;9.40;99.90;;;;;;5018134;28;20490;-63
2024/03/21 06:04:36;;;;;;;27.08;14.43;;;9.50;99.90;;;;;;5021886;28;20268;-63
2024/03/21 06:07:22;;;;;;;32.92;17.92;;;9.50;99.90;;;;;;5018113;28;20046;-63
2024/03/21 06:10:08;;;;;;;27.75;16.75;;;9.50;99.90;;;;;;5019339;28;20047;-63
2024/03/21 06:12:54;;;;;;;29.25;16.52;;;9.60;99.90;;;;;;5017808;28;20025;-63
2024/03/21 06:15:41;;;;;;;26.30;16.20;;;9.60;99.90;;;;;;5021918;28;20040;-63
2024/03/21 06:18:27;;;;;;;22.67;14.43;;;9.60;99.90;;;;;;5014487;28;20087;-63
2024/03/21 06:21:13;;;;;;;27.63;17.25;;;9.60;99.90;;;;;;5014102;28;20060;-63
2024/03/21 06:23:59;;;;;;;32.07;15.57;;;9.60;99.90;;;;;;5016958;28;20119;-63
2024/03/21 06:26:45;;;;;;;42.55;19.88;;;9.60;99.90;;;;;;5014607;28;20036;-63
2024/03/21 06:29:31;;;;;;;35.88;21.17;;;9.60;99.90;;;;;;5013093;28;20037;-63
2024/03/21 06:32:17;;;;;;;29.55;18.55;;;9.60;99.90;;;;;;5014583;28;20110;-63
2024/03/21 06:35:03;;;;;;;46.83;25.40;;;9.60;99.90;;;;;;5012140;28;20032;-63
2024/03/21 06:37:53;;;;;;;40.75;23.35;;;9.60;99.90;;;;;;5020175;28;20037;-62
2024/03/21 06:40:39;;;;;;;43.47;24.58;;;9.70;99.90;;;;;;5011670;28;20050;-63
2024/03/21 06:43:25;;;;;;;40.47;22.73;;;9.70;99.90;;;;;;5015906;28;20041;-62
2024/03/21 06:46:11;;;;;;;44.72;26.50;;;9.70;99.90;;;;;;5013175;28;20034;-62
2024/03/21 06:48:57;;;;;;;50.47;25.58;;;9.80;99.90;;;;;;5018150;28;20433;-62
2024/03/21 06:51:43;;;;;;;43.40;24.95;;;9.90;99.90;;;;;;5016630;28;20030;-62
2024/03/21 06:54:28;;;;;;;41.60;25.13;;;10.00;99.90;;;;;;5018547;28;20080;-63
2024/03/21 06:57:14;;;;;;;40.25;24.25;;;10.20;99.90;;;;;;5014093;28;20030;-63
2024/03/21 07:00:00;;;;;;;41.17;22.75;;;10.20;99.90;;;;;;5015836;28;20478;-63
2024/03/21 07:02:46;;;;;;;42.67;25.05;;;10.20;99.90;;;;;;5016351;28;20150;-63
2024/03/21 07:05:32;;;;;;;52.20;26.15;;;10.20;99.90;;;;;;5026126;28;20096;-63
2024/03/21 07:08:18;;;;;;;44.47;24.02;;;10.20;99.90;;;;;;5019320;28;20037;-63
2024/03/21 07:11:04;;;;;;;38.60;23.08;;;10.20;99.90;;;;;;5016000;28;20120;-63
2024/03/21 07:13:50;;;;;;;47.67;23.90;;;10.20;99.90;;;;;;5014803;28;20033;-63
2024/03/21 07:16:36;;;;;;;36.25;23.40;;;10.20;99.90;;;;;;5010526;28;20045;-63
2024/03/21 07:19:22;;;;;;;41.90;22.33;;;10.20;99.90;;;;;;5011252;28;20095;-63
2024/03/21 07:22:08;;;;;;;39.58;23.92;;;10.20;99.90;;;;;;5012995;28;20037;-63
2024/03/21 07:24:54;;;;;;;38.25;21.77;;;10.10;99.90;;;;;;5010268;28;20026;-64
2024/03/21 07:27:41;;;;;;;37.87;22.20;;;10.10;99.90;;;;;;5014294;28;20081;-64
2024/03/21 07:30:27;;;;;;;39.53;21.08;;;10.10;99.90;;;;;;5009511;28;20646;-64
2024/03/21 07:33:13;;;;;;;31.20;19.20;;;10.00;99.90;;;;;;5022767;28;20068;-63
2024/03/21 07:36:00;;;;;;;33.17;19.87;;;9.90;99.90;;;;;;5021257;28;20087;-63
2024/03/21 07:38:46;;;;;;;31.02;17.15;;;9.80;99.90;;;;;;5008385;28;20317;-63
2024/03/21 07:41:32;;;;;;;36.50;16.73;;;9.90;99.90;;;;;;5003148;28;20756;-63
2024/03/21 07:44:18;;;;;;;23.27;15.05;;;9.90;99.90;;;;;;5015438;28;20128;-64
2024/03/21 07:47:04;;;;;;;26.42;13.93;;;9.90;99.90;;;;;;5011559;28;20041;-63
2024/03/21 07:49:51;;;;;;;23.55;12.70;;;9.90;99.90;;;;;;5019170;28;21660;-62
2024/03/21 07:52:37;;;;;;;22.35;13.13;;;9.90;99.90;;;;;;5020414;28;20038;-62
2024/03/21 07:55:23;;;;;;;17.67;10.82;;;9.90;99.90;;;;;;5023076;28;20033;-64
2024/03/21 07:58:09;;;;;;;18.33;8.85;;;9.90;99.90;;;;;;5017693;28;20041;-63
2024/03/21 08:00:55;;;;;;;18.63;9.05;;;10.00;99.90;;;;;;5020095;28;20042;-63
2024/03/21 08:03:40;;;;;;;17.27;9.23;;;10.00;99.90;;;;;;5021901;28;20044;-64
2024/03/21 08:06:26;;;;;;;17.58;9.82;;;10.00;99.90;;;;;;5015469;28;20076;-64
2024/03/21 08:09:12;;;;;;;17.50;9.98;;;10.00;99.90;;;;;;5016318;28;20029;-63
2024/03/21 08:11:58;;;;;;;16.95;10.15;;;10.00;99.90;;;;;;5015267;28;20741;-63
2024/03/21 08:14:44;;;;;;;19.27;11.93;;;10.00;99.90;;;;;;5015846;28;20221;-63
2024/03/21 08:17:30;;;;;;;19.02;10.07;;;9.90;99.90;;;;;;5017640;28;20033;-64
2024/03/21 08:20:16;;;;;;;17.83;10.10;;;10.00;99.90;;;;;;5014392;28;20038;-63
2024/03/21 08:23:02;;;;;;;18.45;10.10;;;10.00;99.90;;;;;;5002129;28;20077;-63
2024/03/21 08:25:48;;;;;;;16.92;9.95;;;10.00;99.90;;;;;;5019183;28;20113;-62
2024/03/21 08:28:34;;;;;;;15.88;10.15;;;10.00;99.90;;;;;;5012216;28;20042;-63
2024/03/21 08:31:19;;;;;;;20.27;11.40;;;10.00;99.90;;;;;;5018634;28;20041;-66
2024/03/21 08:34:05;;;;;;;18.02;10.60;;;10.00;99.90;;;;;;5019873;28;20026;-65
2024/03/21 08:36:51;;;;;;;17.25;10.85;;;10.10;99.90;;;;;;5018262;28;20517;-63
2024/03/21 08:39:37;;;;;;;22.70;13.23;;;10.10;99.90;;;;;;5016261;28;20134;-63
2024/03/21 08:42:23;;;;;;;22.67;12.52;;;10.10;99.90;;;;;;5012632;28;20389;-63
2024/03/21 08:45:12;;;;;;;20.75;11.93;;;10.20;99.90;;;;;;5020155;28;20030;-63
2024/03/21 08:47:59;;;;;;;23.58;12.02;;;10.20;99.90;;;;;;5010154;28;20042;-63
2024/03/21 08:50:47;;;;;;;18.92;10.98;;;10.10;99.90;;;;;;5012460;28;20137;-63
2024/03/21 08:53:37;;;;;;;18.05;11.68;;;10.10;99.90;;;;;;5017663;28;20076;-63
2024/03/21 08:56:22;;;;;;;15.82;10.13;;;10.10;99.90;;;;;;5021275;28;20504;-63
2024/03/21 08:59:09;;;;;;;15.55;10.07;;;10.20;99.90;;;;;;5007170;28;20032;-63
2024/03/21 09:01:55;;;;;;;14.75;9.68;;;10.30;99.90;;;;;;5022361;28;20038;-63
2024/03/21 09:04:40;;;;;;;18.00;10.97;;;10.40;99.90;;;;;;5013355;28;20391;-62
2024/03/21 09:07:26;;;;;;;14.27;8.50;;;10.20;99.90;;;;;;5017122;28;20116;-63
2024/03/21 09:10:12;;;;;;;12.75;8.45;;;10.10;99.90;;;;;;5024068;28;20048;-63
2024/03/21 09:12:58;;;;;;;17.05;10.10;;;10.10;99.90;;;;;;5023822;28;20030;-63
2024/03/21 09:15:44;;;;;;;16.58;9.20;;;9.90;99.90;;;;;;5022003;28;20112;-63
2024/03/21 09:18:30;;;;;;;16.52;10.52;;;9.80;99.90;;;;;;5021198;28;20538;-62
2024/03/21 09:21:16;;;;;;;20.45;10.68;;;9.80;99.90;;;;;;5017528;28;20072;-63
2024/03/21 09:24:03;;;;;;;16.65;9.65;;;9.70;99.90;;;;;;5019307;28;20050;-63
2024/03/21 09:26:49;;;;;;;15.45;9.35;;;9.70;99.90;;;;;;5025842;28;20103;-63
2024/03/21 09:29:35;;;;;;;17.30;10.23;;;9.80;99.90;;;;;;5022669;28;20038;-63
2024/03/21 09:32:21;;;;;;;15.50;9.13;;;9.90;99.90;;;;;;5018983;28;20050;-63
2024/03/21 09:35:09;;;;;;;14.60;9.30;;;10.10;99.90;;;;;;5013470;28;20053;-63
2024/03/21 09:37:55;;;;;;;16.00;8.80;;;10.20;99.90;;;;;;5018146;28;20038;-63
2024/03/21 09:40:41;;;;;;;13.30;8.52;;;10.10;99.90;;;;;;5023280;28;20025;-63
2024/03/21 09:43:30;;;;;;;12.00;7.80;;;10.20;99.90;;;;;;5015657;28;20481;-63
2024/03/21 09:46:17;;;;;;;11.27;7.63;;;10.40;99.90;;;;;;5011808;28;20045;-63
2024/03/21 09:49:03;;;;;;;15.00;8.38;;;10.70;99.90;;;;;;5010653;28;20575;-63
2024/03/21 09:51:49;;;;;;;13.23;7.85;;;11.00;99.90;;;;;;5001765;28;20038;-63
2024/03/21 09:54:36;;;;;;;11.80;7.40;;;11.10;99.90;;;;;;5019168;28;20033;-63
2024/03/21 09:57:22;;;;;;;17.08;6.25;;;11.10;99.90;;;;;;5020737;28;20469;-63
2024/03/21 10:00:15;;;;;;;12.05;6.57;;;11.20;99.90;;;;;;5013829;28;20067;-63
2024/03/21 10:03:02;;;;;;;13.52;6.93;;;11.40;99.90;;;;;;4997045;28;20042;-63
2024/03/21 10:05:48;;;;;;;10.38;6.57;;;11.40;99.90;;;;;;5001256;28;20041;-63
2024/03/21 10:08:34;;;;;;;9.02;5.55;;;11.20;99.90;;;;;;4995218;28;20034;-63
2024/03/21 10:11:20;;;;;;;9.55;6.05;;;11.10;99.90;;;;;;4988409;28;20093;-63
2024/03/21 10:14:08;;;;;;;9.73;5.78;;;10.80;99.90;;;;;;4996436;28;20084;-62
2024/03/21 10:16:55;;;;;;;8.68;5.60;;;10.80;99.90;;;;;;4993248;28;20041;-63
2024/03/21 10:19:41;;;;;;;7.40;5.10;;;10.90;99.90;;;;;;4992538;28;20180;-63
2024/03/21 10:22:27;;;;;;;7.82;5.00;;;11.00;99.90;;;;;;4983879;28;20036;-63
2024/03/21 10:25:16;;;;;;;11.80;5.53;;;11.20;99.90;;;;;;5002476;28;20029;-63
2024/03/21 10:28:04;;;;;;;8.57;5.28;;;11.00;99.90;;;;;;4994437;28;20034;-62
2024/03/21 10:30:51;;;;;;;8.13;5.10;;;11.30;99.90;;;;;;5001691;28;20041;-63
2024/03/21 10:33:37;;;;;;;;;;;11.90;99.90;;;;;;5014703;28;20038;-62
2024/03/21 10:36:23;;;;;;;9.98;5.43;;;12.10;99.90;;;;;;5015509;28;19920;-62
2024/03/21 10:39:10;;;;;;;9.10;5.25;;;12.00;99.90;;;;;;5019428;28;20511;-62
2024/03/21 10:41:57;;;;;;;9.07;5.05;;;11.70;99.90;;;;;;5008365;28;20116;-62
2024/03/21 10:44:44;;;;;;;9.32;4.63;;;11.40;99.90;;;;;;5015426;28;20076;-62
2024/03/21 10:47:31;;;;;;;6.82;4.80;;;11.60;99.90;;;;;;5014034;28;20095;-62
2024/03/21 10:50:22;;;;;;;6.90;4.57;;;12.10;99.90;;;;;;5016003;28;20030;-62
2024/03/21 10:53:21;;;;;;;5.15;3.42;;;11.90;99.90;;;;;;5020138;28;20037;-62
2024/03/21 10:56:08;;;;;;;6.97;3.92;;;12.30;99.90;;;;;;5014295;28;20547;-62
2024/03/21 10:58:56;;;;;;;6.20;3.97;;;12.50;99.90;;;;;;5020074;28;20725;-62
2024/03/21 11:01:44;;;;;;;6.70;4.05;;;12.40;99.90;;;;;;5011729;28;20048;-62
2024/03/21 11:04:35;;;;;;;6.57;3.65;;;12.10;99.90;;;;;;5019328;28;20064;-62
2024/03/21 11:07:22;;;;;;;4.57;3.45;;;12.20;99.90;;;;;;5013497;28;20079;-63
2024/03/21 11:10:14;;;;;;;4.80;3.33;;;12.30;99.90;;;;;;5020745;28;20038;-63
2024/03/21 11:13:00;;;;;;;4.70;3.33;;;12.10;99.90;;;;;;5017539;28;20040;-63
2024/03/21 11:15:46;;;;;;;3.53;2.90;;;12.20;99.90;;;;;;5018031;28;20034;-63
2024/03/21 11:18:32;;;;;;;4.68;3.58;;;12.60;99.90;;;;;;5017357;28;20432;-63
2024/03/21 11:21:18;;;;;;;4.32;2.97;;;12.80;99.90;;;;;;5018491;28;20056;-63
2024/03/21 11:24:04;;;;;;;5.45;3.40;;;12.90;99.90;;;;;;5021432;28;20091;-63
2024/03/21 11:26:50;;;;;;;3.80;3.15;;;12.70;99.90;;;;;;5018684;28;20038;-63
2024/03/21 11:29:36;;;;;;;5.53;3.10;;;12.90;99.90;;;;;;5011583;28;20042;-63
2024/03/21 11:32:26;;;;;;;4.40;3.30;;;12.80;99.90;;;;;;5002074;28;20367;-63
2024/03/21 11:35:12;;;;;;;3.50;2.80;;;12.70;99.90;;;;;;5005651;28;20030;-61
2024/03/21 11:37:58;;;;;;;4.15;3.00;;;12.50;99.90;;;;;;4988103;28;20607;-63
2024/03/21 11:40:44;;;;;;;4.45;2.95;;;12.40;99.90;;;;;;5007429;28;20044;-63
2024/03/21 11:43:30;;;;;;;5.22;3.28;;;12.30;99.90;;;;;;5003546;28;20052;-63
2024/03/21 11:46:16;;;;;;;6.30;4.33;;;12.20;99.90;;;;;;5006634;28;20034;-63
2024/03/21 11:49:04;;;;;;;5.28;3.40;;;12.10;99.90;;;;;;5000856;28;20076;-63
2024/03/21 11:51:49;;;;;;;5.53;4.00;;;11.90;99.90;;;;;;5000840;28;20104;-63
2024/03/21 11:54:35;;;;;;;6.43;3.83;;;11.80;99.90;;;;;;5004298;28;20061;-63
2024/03/21 11:57:21;;;;;;;7.20;3.75;;;11.90;99.90;;;;;;4995469;28;20034;-63
2024/03/21 12:00:08;;;;;;;6.97;4.30;;;11.70;99.90;;;;;;4999051;28;20100;-63
2024/03/21 12:02:54;;;;;;;12.15;4.47;;;11.90;99.90;;;;;;5003196;28;20042;-63
2024/03/21 12:05:40;;;;;;;8.95;3.97;;;12.10;99.90;;;;;;5002883;28;20034;-63
2024/03/21 12:08:25;;;;;;;5.60;4.43;;;12.30;99.90;;;;;;5012091;23;20822;-62
2024/03/21 12:11:15;;;;;;;5.88;4.32;;;12.20;99.90;;;;;;5030376;28;20033;-63
2024/03/21 12:14:01;;;;;;;10.98;4.97;;;12.30;99.90;;;;;;5026564;28;20503;-64
2024/03/21 12:16:47;;;;;;;6.97;4.80;;;12.60;99.90;;;;;;5036041;28;20064;-62
2024/03/21 12:19:33;;;;;;;6.47;5.18;;;12.60;99.90;;;;;;5037902;28;20060;-61
2024/03/21 12:22:19;;;;;;;6.03;4.72;;;12.00;99.90;;;;;;5035285;28;20507;-62
2024/03/21 12:25:06;;;;;;;6.93;5.43;;;12.10;99.90;;;;;;5033262;28;20034;-63
2024/03/21 12:27:52;;;;;;;9.90;6.25;;;12.10;99.90;;;;;;5033875;28;20049;-62
2024/03/21 12:30:38;;;;;;;7.55;5.65;;;12.20;99.90;;;;;;5037575;28;20086;-61
2024/03/21 12:33:24;;;;;;;7.65;4.78;;;12.10;99.90;;;;;;5037370;28;20496;-61
2024/03/21 12:36:11;;;;;;;7.23;5.37;;;11.90;99.90;;;;;;5033492;28;20045;-61
2024/03/21 12:38:59;;;;;;;6.75;5.47;;;12.20;99.90;;;;;;5030484;28;20041;-61
2024/03/21 12:41:44;;;;;;;6.72;5.20;;;12.20;99.90;;;;;;5035380;28;20427;-61
2024/03/21 12:44:30;;;;;;;6.78;5.38;;;12.40;99.90;;;;;;5036147;28;20045;-61
2024/03/21 12:47:18;;;;;;;9.15;5.85;;;12.30;99.90;;;;;;5036605;28;20065;-61
2024/03/21 12:50:05;;;;;;;16.00;5.85;;;12.00;99.90;;;;;;5038238;28;20056;-61
2024/03/21 12:52:51;;;;;;;7.28;5.03;;;12.20;99.90;;;;;;5035577;28;20048;-61
2024/03/21 12:55:36;;;;;;;8.45;6.07;;;12.10;99.90;;;;;;5034849;28;20048;-61
2024/03/21 12:58:23;;;;;;;9.93;6.15;;;12.20;99.90;;;;;;5019196;28;20044;-61
2024/03/21 13:01:09;;;;;;;11.20;5.70;;;12.30;99.90;;;;;;5021254;28;20049;-62
2024/03/21 13:03:55;;;;;;;9.75;5.95;;;12.10;99.90;;;;;;5034775;28;20322;-61
2024/03/21 13:06:41;;;;;;;8.47;6.27;;;12.00;99.90;;;;;;5038390;28;20116;-61
2024/03/21 13:09:27;;;;;;;7.80;5.90;;;11.70;99.90;;;;;;5038109;28;20036;-61
2024/03/21 13:12:13;;;;;;;10.90;5.57;;;11.60;99.90;;;;;;5041331;28;20456;-61
2024/03/21 13:14:58;;;;;;;7.70;5.35;;;11.50;99.90;;;;;;5038908;28;20043;-62
2024/03/21 13:17:44;;;;;;;8.60;5.85;;;11.60;99.90;;;;;;5039435;28;20037;-61
2024/03/21 13:20:32;;;;;;;13.63;6.17;;;11.70;99.90;;;;;;5037290;28;20041;-61
2024/03/21 13:23:19;;;;;;;8.15;6.43;;;11.60;99.90;;;;;;5038025;28;20249;-61
2024/03/21 13:26:05;;;;;;;7.90;5.70;;;11.50;99.90;;;;;;5044424;28;20083;-61
2024/03/21 13:28:50;;;;;;;8.40;5.43;;;11.40;99.90;;;;;;5040923;28;20048;-60
2024/03/21 13:31:36;;;;;;;8.43;6.10;;;11.50;99.90;;;;;;5032051;28;20045;-61
2024/03/21 13:34:22;;;;;;;7.68;5.40;;;11.80;99.90;;;;;;5020889;28;20057;-61
2024/03/21 13:37:08;;;;;;;6.60;4.88;;;11.90;99.90;;;;;;5004760;28;20499;-61
2024/03/21 13:39:54;;;;;;;9.38;5.55;;;11.60;99.90;;;;;;5016362;28;20255;-61
2024/03/21 13:42:40;;;;;;;7.50;5.50;;;11.50;99.90;;;;;;5024265;28;20039;-61
2024/03/21 13:45:26;;;;;;;7.13;5.22;;;11.70;99.90;;;;;;5015744;28;20037;-61
2024/03/21 13:48:12;;;;;;;7.85;4.75;;;11.70;99.90;;;;;;5019772;28;20458;-61
2024/03/21 13:50:58;;;;;;;6.53;4.28;;;11.70;99.90;;;;;;5019948;28;20792;-61
2024/03/21 13:53:44;;;;;;;7.10;5.30;;;11.90;99.90;;;;;;5018049;28;20541;-61
2024/03/21 13:56:29;;;;;;;9.80;5.07;;;11.80;99.90;;;;;;5014799;28;20053;-61
2024/03/21 13:59:16;;;;;;;11.18;5.57;;;11.70;99.90;;;;;;5016562;28;20064;-61
2024/03/21 14:02:03;;;;;;;8.23;5.38;;;11.60;99.90;;;;;;5022682;28;20075;-60
2024/03/21 14:04:48;;;;;;;8.05;5.00;;;11.50;99.90;;;;;;5016954;28;20527;-61
2024/03/21 14:07:35;;;;;;;10.02;5.30;;;11.60;99.90;;;;;;5019622;28;20127;-61
2024/03/21 14:10:23;;;;;;;12.10;5.32;;;11.40;99.90;;;;;;5015548;28;20581;-60
2024/03/21 14:13:13;;;;;;;8.98;5.60;;;11.10;99.90;;;;;;5017741;28;20051;-63
2024/03/21 14:15:58;;;;;;;8.95;5.60;;;11.00;99.90;;;;;;5017389;28;20076;-66
2024/03/21 14:18:44;;;;;;;9.88;5.88;;;11.10;99.90;;;;;;5019351;28;20029;-65
2024/03/21 14:21:31;;;;;;;9.55;5.18;;;10.90;99.90;;;;;;5022183;28;20041;-65
2024/03/21 14:24:17;;;;;;;7.82;5.10;;;11.00;99.90;;;;;;5020219;28;20061;-61
2024/03/21 14:27:03;;;;;;;9.65;5.72;;;10.80;99.90;;;;;;5021814;28;20048;-60
2024/03/21 14:29:49;;;;;;;15.20;5.50;;;10.80;99.90;;;;;;5014862;28;20120;-60
2024/03/21 14:32:43;;;;;;;10.07;5.32;;;10.80;99.90;;;;;;5056995;28;20166;-60